VIE weather

Vienna International Airport
Vienna, Vienna, Austria

Public forecast

Using degrees Celsius for public forecast. Weather courtesy of forecast.io.

METAR (pilot weather report)

Retrieved 2017/08/16 18:20 UTC (11 minutes ago):

LOWW 161820Z 29008KT 270V330 CAVOK 24/16 Q1020 NOSIG

TAF (pilot weather forecast)

Retrieved 2017/08/16 18:20 UTC (11 minutes ago):

TAF LOWW 161715Z 1618/1724 32007KT CAVOK TX30/1715Z TN16/1703Z BECMG 1707/1709 05004KT